sensor_id;sensor_type;location;lat;lon;timestamp;temperature;humidity
1716;DHT22;855;48.824;9.220;2024-02-16T00:01:59;10.90;91.10
1716;DHT22;855;48.824;9.220;2024-02-16T00:04:26;10.90;91.10
1716;DHT22;855;48.824;9.220;2024-02-16T00:06:53;10.90;91.10
1716;DHT22;855;48.824;9.220;2024-02-16T00:09:22;11.00;90.90
1716;DHT22;855;48.824;9.220;2024-02-16T00:11:49;10.90;90.60
1716;DHT22;855;48.824;9.220;2024-02-16T00:14:18;10.60;91.30
1716;DHT22;855;48.824;9.220;2024-02-16T00:16:45;10.60;91.60
1716;DHT22;855;48.824;9.220;2024-02-16T00:19:12;10.70;91.50
1716;DHT22;855;48.824;9.220;2024-02-16T00:21:38;10.80;91.40
1716;DHT22;855;48.824;9.220;2024-02-16T00:24:07;10.90;91.40
1716;DHT22;855;48.824;9.220;2024-02-16T00:26:36;10.90;91.30
1716;DHT22;855;48.824;9.220;2024-02-16T00:29:05;10.90;91.10
1716;DHT22;855;48.824;9.220;2024-02-16T00:31:31;10.90;91.10
1716;DHT22;855;48.824;9.220;2024-02-16T00:33:58;10.90;91.10
1716;DHT22;855;48.824;9.220;2024-02-16T00:36:26;11.00;91.10
1716;DHT22;855;48.824;9.220;2024-02-16T00:38:55;11.00;91.10
1716;DHT22;855;48.824;9.220;2024-02-16T00:41:23;11.10;90.90
1716;DHT22;855;48.824;9.220;2024-02-16T00:43:51;11.10;90.80
1716;DHT22;855;48.824;9.220;2024-02-16T00:46:18;11.10;90.60
1716;DHT22;855;48.824;9.220;2024-02-16T00:48:45;11.00;90.50
1716;DHT22;855;48.824;9.220;2024-02-16T00:51:13;10.70;91.20
1716;DHT22;855;48.824;9.220;2024-02-16T00:53:40;10.90;91.50
1716;DHT22;855;48.824;9.220;2024-02-16T00:56:07;10.90;91.30
1716;DHT22;855;48.824;9.220;2024-02-16T00:58:34;11.00;91.10
1716;DHT22;855;48.824;9.220;2024-02-16T01:01:03;11.00;91.10
1716;DHT22;855;48.824;9.220;2024-02-16T01:03:30;11.10;90.80
1716;DHT22;855;48.824;9.220;2024-02-16T01:05:57;11.10;90.70
1716;DHT22;855;48.824;9.220;2024-02-16T01:08:24;11.00;90.80
1716;DHT22;855;48.824;9.220;2024-02-16T01:10:53;10.90;90.80
1716;DHT22;855;48.824;9.220;2024-02-16T01:13:20;10.90;91.10
1716;DHT22;855;48.824;9.220;2024-02-16T01:15:46;10.90;91.10
1716;DHT22;855;48.824;9.220;2024-02-16T01:18:15;10.90;91.30
1716;DHT22;855;48.824;9.220;2024-02-16T01:20:41;10.80;91.40
1716;DHT22;855;48.824;9.220;2024-02-16T01:23:08;10.90;91.50
1716;DHT22;855;48.824;9.220;2024-02-16T01:25:35;10.90;91.40
1716;DHT22;855;48.824;9.220;2024-02-16T01:28:02;10.90;91.40
1716;DHT22;855;48.824;9.220;2024-02-16T01:30:29;10.90;91.40
1716;DHT22;855;48.824;9.220;2024-02-16T01:32:55;11.00;91.30
1716;DHT22;855;48.824;9.220;2024-02-16T01:35:24;11.00;91.30
1716;DHT22;855;48.824;9.220;2024-02-16T01:37:50;11.00;91.30
1716;DHT22;855;48.824;9.220;2024-02-16T01:40:17;10.90;91.50
1716;DHT22;855;48.824;9.220;2024-02-16T01:42:44;11.00;91.50
1716;DHT22;855;48.824;9.220;2024-02-16T01:45:11;10.90;91.70
1716;DHT22;855;48.824;9.220;2024-02-16T01:47:39;10.90;92.00
1716;DHT22;855;48.824;9.220;2024-02-16T01:50:09;11.00;91.70
1716;DHT22;855;48.824;9.220;2024-02-16T01:52:37;11.00;91.50
1716;DHT22;855;48.824;9.220;2024-02-16T01:55:05;11.00;91.50
1716;DHT22;855;48.824;9.220;2024-02-16T01:57:34;11.00;91.60
1716;DHT22;855;48.824;9.220;2024-02-16T02:00:02;11.00;91.50
1716;DHT22;855;48.824;9.220;2024-02-16T02:02:33;10.90;91.80
1716;DHT22;855;48.824;9.220;2024-02-16T02:05:00;11.00;91.70
1716;DHT22;855;48.824;9.220;2024-02-16T02:07:27;11.00;91.70
1716;DHT22;855;48.824;9.220;2024-02-16T02:09:56;10.90;91.60
1716;DHT22;855;48.824;9.220;2024-02-16T02:12:22;11.00;92.00
1716;DHT22;855;48.824;9.220;2024-02-16T02:14:49;11.00;91.80
1716;DHT22;855;48.824;9.220;2024-02-16T02:17:17;11.00;91.70
1716;DHT22;855;48.824;9.220;2024-02-16T02:19:45;10.90;91.90
1716;DHT22;855;48.824;9.220;2024-02-16T02:22:15;10.80;92.30
1716;DHT22;855;48.824;9.220;2024-02-16T02:24:42;10.80;92.60
1716;DHT22;855;48.824;9.220;2024-02-16T02:27:09;10.90;92.60
1716;DHT22;855;48.824;9.220;2024-02-16T02:29:36;10.90;92.50
1716;DHT22;855;48.824;9.220;2024-02-16T02:32:04;10.80;92.90
1716;DHT22;855;48.824;9.220;2024-02-16T02:34:31;10.90;93.00
1716;DHT22;855;48.824;9.220;2024-02-16T02:36:58;11.00;93.00
1716;DHT22;855;48.824;9.220;2024-02-16T02:39:26;10.80;93.10
1716;DHT22;855;48.824;9.220;2024-02-16T02:41:53;10.80;93.30
1716;DHT22;855;48.824;9.220;2024-02-16T02:44:19;10.90;93.40
1716;DHT22;855;48.824;9.220;2024-02-16T02:46:46;11.00;93.00
1716;DHT22;855;48.824;9.220;2024-02-16T02:49:13;11.10;92.90
1716;DHT22;855;48.824;9.220;2024-02-16T02:51:40;11.20;92.80
1716;DHT22;855;48.824;9.220;2024-02-16T02:54:07;11.30;92.70
1716;DHT22;855;48.824;9.220;2024-02-16T02:56:35;11.30;92.60
1716;DHT22;855;48.824;9.220;2024-02-16T02:59:02;11.40;92.50
1716;DHT22;855;48.824;9.220;2024-02-16T03:01:31;11.40;92.40
1716;DHT22;855;48.824;9.220;2024-02-16T03:03:58;11.40;92.40
1716;DHT22;855;48.824;9.220;2024-02-16T03:06:25;11.50;92.20
1716;DHT22;855;48.824;9.220;2024-02-16T03:08:52;11.50;92.10
1716;DHT22;855;48.824;9.220;2024-02-16T03:11:19;11.50;92.00
1716;DHT22;855;48.824;9.220;2024-02-16T03:13:47;11.60;91.70
1716;DHT22;855;48.824;9.220;2024-02-16T03:16:14;11.60;91.60
1716;DHT22;855;48.824;9.220;2024-02-16T03:18:41;11.60;91.50
1716;DHT22;855;48.824;9.220;2024-02-16T03:21:08;11.60;91.30
1716;DHT22;855;48.824;9.220;2024-02-16T03:23:35;11.60;91.50
1716;DHT22;855;48.824;9.220;2024-02-16T03:26:03;11.60;91.30
1716;DHT22;855;48.824;9.220;2024-02-16T03:28:30;11.60;91.30
1716;DHT22;855;48.824;9.220;2024-02-16T03:30:58;11.40;91.40
1716;DHT22;855;48.824;9.220;2024-02-16T03:33:25;11.40;91.70
1716;DHT22;855;48.824;9.220;2024-02-16T03:35:52;11.50;91.60
1716;DHT22;855;48.824;9.220;2024-02-16T03:38:19;11.50;91.50
1716;DHT22;855;48.824;9.220;2024-02-16T03:40:46;11.60;91.40
1716;DHT22;855;48.824;9.220;2024-02-16T03:43:13;11.60;91.30
1716;DHT22;855;48.824;9.220;2024-02-16T03:45:40;11.60;91.20
1716;DHT22;855;48.824;9.220;2024-02-16T03:48:08;11.60;91.20
1716;DHT22;855;48.824;9.220;2024-02-16T03:50:35;11.60;91.20
1716;DHT22;855;48.824;9.220;2024-02-16T03:53:02;11.50;91.40
1716;DHT22;855;48.824;9.220;2024-02-16T03:55:29;11.50;91.30
1716;DHT22;855;48.824;9.220;2024-02-16T03:57:59;11.40;91.40
1716;DHT22;855;48.824;9.220;2024-02-16T04:00:25;11.40;91.40
1716;DHT22;855;48.824;9.220;2024-02-16T04:02:52;11.40;91.30
1716;DHT22;855;48.824;9.220;2024-02-16T04:05:20;11.40;91.30
1716;DHT22;855;48.824;9.220;2024-02-16T04:07:47;11.50;91.10
1716;DHT22;855;48.824;9.220;2024-02-16T04:10:14;11.50;90.90
1716;DHT22;855;48.824;9.220;2024-02-16T04:12:41;11.60;90.90
1716;DHT22;855;48.824;9.220;2024-02-16T04:15:08;11.60;90.80
1716;DHT22;855;48.824;9.220;2024-02-16T04:17:35;11.70;90.60
1716;DHT22;855;48.824;9.220;2024-02-16T04:20:02;11.50;91.40
1716;DHT22;855;48.824;9.220;2024-02-16T04:22:31;11.40;91.70
1716;DHT22;855;48.824;9.220;2024-02-16T04:25:03;11.50;91.50
1716;DHT22;855;48.824;9.220;2024-02-16T04:27:30;11.50;91.30
1716;DHT22;855;48.824;9.220;2024-02-16T04:29:57;11.50;91.30
1716;DHT22;855;48.824;9.220;2024-02-16T04:32:24;11.50;91.30
1716;DHT22;855;48.824;9.220;2024-02-16T04:34:51;11.50;91.40
1716;DHT22;855;48.824;9.220;2024-02-16T04:37:18;11.50;91.40
1716;DHT22;855;48.824;9.220;2024-02-16T04:39:46;11.60;91.30
1716;DHT22;855;48.824;9.220;2024-02-16T04:42:13;11.70;91.30
1716;DHT22;855;48.824;9.220;2024-02-16T04:44:40;11.70;91.20
1716;DHT22;855;48.824;9.220;2024-02-16T04:47:07;11.70;91.10
1716;DHT22;855;48.824;9.220;2024-02-16T04:49:35;11.80;91.00
1716;DHT22;855;48.824;9.220;2024-02-16T04:52:02;11.80;91.00
1716;DHT22;855;48.824;9.220;2024-02-16T04:54:29;11.80;90.90
1716;DHT22;855;48.824;9.220;2024-02-16T04:56:57;11.70;91.00
1716;DHT22;855;48.824;9.220;2024-02-16T04:59:25;11.70;90.90
1716;DHT22;855;48.824;9.220;2024-02-16T05:01:53;11.50;91.20
1716;DHT22;855;48.824;9.220;2024-02-16T05:04:21;11.40;91.80
1716;DHT22;855;48.824;9.220;2024-02-16T05:06:48;11.40;92.00
1716;DHT22;855;48.824;9.220;2024-02-16T05:09:17;11.50;91.80
1716;DHT22;855;48.824;9.220;2024-02-16T05:11:44;11.50;91.50
1716;DHT22;855;48.824;9.220;2024-02-16T05:14:12;11.50;91.60
1716;DHT22;855;48.824;9.220;2024-02-16T05:16:43;11.40;91.40
1716;DHT22;855;48.824;9.220;2024-02-16T05:19:09;11.40;91.50
1716;DHT22;855;48.824;9.220;2024-02-16T05:22:10;11.50;91.40
1716;DHT22;855;48.824;9.220;2024-02-16T05:25:08;11.60;91.10
1716;DHT22;855;48.824;9.220;2024-02-16T05:27:35;11.50;91.00
1716;DHT22;855;48.824;9.220;2024-02-16T05:30:09;11.50;90.90
1716;DHT22;855;48.824;9.220;2024-02-16T05:32:38;11.60;90.70
1716;DHT22;855;48.824;9.220;2024-02-16T05:35:06;11.70;90.30
1716;DHT22;855;48.824;9.220;2024-02-16T05:37:37;11.70;90.20
1716;DHT22;855;48.824;9.220;2024-02-16T05:40:07;11.60;90.20
1716;DHT22;855;48.824;9.220;2024-02-16T05:42:45;11.60;90.20
1716;DHT22;855;48.824;9.220;2024-02-16T05:45:14;11.60;90.20
1716;DHT22;855;48.824;9.220;2024-02-16T05:47:41;11.60;90.30
1716;DHT22;855;48.824;9.220;2024-02-16T05:50:08;11.60;90.30
1716;DHT22;855;48.824;9.220;2024-02-16T05:52:37;11.50;90.70
1716;DHT22;855;48.824;9.220;2024-02-16T05:55:05;11.50;90.90
1716;DHT22;855;48.824;9.220;2024-02-16T05:57:32;11.50;90.80
1716;DHT22;855;48.824;9.220;2024-02-16T05:59:59;11.40;91.00
1716;DHT22;855;48.824;9.220;2024-02-16T06:02:27;11.40;90.80
1716;DHT22;855;48.824;9.220;2024-02-16T06:04:53;11.40;91.10
1716;DHT22;855;48.824;9.220;2024-02-16T06:07:20;11.50;90.80
1716;DHT22;855;48.824;9.220;2024-02-16T06:09:47;11.40;90.70
1716;DHT22;855;48.824;9.220;2024-02-16T06:12:14;11.40;90.70
1716;DHT22;855;48.824;9.220;2024-02-16T06:14:41;11.40;90.70
1716;DHT22;855;48.824;9.220;2024-02-16T06:17:08;11.30;90.30
1716;DHT22;855;48.824;9.220;2024-02-16T06:19:36;11.40;90.50
1716;DHT22;855;48.824;9.220;2024-02-16T06:22:03;11.50;90.20
1716;DHT22;855;48.824;9.220;2024-02-16T06:24:30;11.50;89.90
1716;DHT22;855;48.824;9.220;2024-02-16T06:26:57;11.50;89.90
1716;DHT22;855;48.824;9.220;2024-02-16T06:29:24;11.50;89.80
1716;DHT22;855;48.824;9.220;2024-02-16T06:31:51;11.60;89.70
1716;DHT22;855;48.824;9.220;2024-02-16T06:34:18;11.60;89.70
1716;DHT22;855;48.824;9.220;2024-02-16T06:36:47;11.50;89.40
1716;DHT22;855;48.824;9.220;2024-02-16T06:39:15;11.50;89.70
1716;DHT22;855;48.824;9.220;2024-02-16T06:41:44;11.50;89.30
1716;DHT22;855;48.824;9.220;2024-02-16T06:44:12;11.40;89.40
1716;DHT22;855;48.824;9.220;2024-02-16T06:46:39;11.50;89.70
1716;DHT22;855;48.824;9.220;2024-02-16T06:49:06;11.30;90.30
1716;DHT22;855;48.824;9.220;2024-02-16T06:51:33;11.10;90.80
1716;DHT22;855;48.824;9.220;2024-02-16T06:54:01;11.20;91.10
1716;DHT22;855;48.824;9.220;2024-02-16T06:56:28;11.30;90.60
1716;DHT22;855;48.824;9.220;2024-02-16T06:58:54;11.40;90.30
1716;DHT22;855;48.824;9.220;2024-02-16T07:01:21;11.50;90.20
1716;DHT22;855;48.824;9.220;2024-02-16T07:03:48;11.50;90.10
1716;DHT22;855;48.824;9.220;2024-02-16T07:06:16;11.50;89.90
1716;DHT22;855;48.824;9.220;2024-02-16T07:08:43;11.60;90.10
1716;DHT22;855;48.824;9.220;2024-02-16T07:11:12;11.60;90.10
1716;DHT22;855;48.824;9.220;2024-02-16T07:13:39;11.40;89.90
1716;DHT22;855;48.824;9.220;2024-02-16T07:16:08;11.30;90.20
1716;DHT22;855;48.824;9.220;2024-02-16T07:18:35;11.40;90.50
1716;DHT22;855;48.824;9.220;2024-02-16T07:21:02;11.50;90.50
1716;DHT22;855;48.824;9.220;2024-02-16T07:23:29;11.50;90.40
1716;DHT22;855;48.824;9.220;2024-02-16T07:25:56;11.50;90.30
1716;DHT22;855;48.824;9.220;2024-02-16T07:28:25;11.60;90.40
1716;DHT22;855;48.824;9.220;2024-02-16T07:30:52;11.70;90.40
1716;DHT22;855;48.824;9.220;2024-02-16T07:33:19;11.70;90.20
1716;DHT22;855;48.824;9.220;2024-02-16T07:35:47;11.80;89.90
1716;DHT22;855;48.824;9.220;2024-02-16T07:38:13;11.80;89.30
1716;DHT22;855;48.824;9.220;2024-02-16T07:40:40;11.70;88.60
1716;DHT22;855;48.824;9.220;2024-02-16T07:43:07;11.80;88.90
1716;DHT22;855;48.824;9.220;2024-02-16T07:45:36;11.90;88.90
1716;DHT22;855;48.824;9.220;2024-02-16T07:48:03;12.00;88.90
1716;DHT22;855;48.824;9.220;2024-02-16T07:50:31;12.10;88.50
1716;DHT22;855;48.824;9.220;2024-02-16T07:52:58;12.10;88.10
1716;DHT22;855;48.824;9.220;2024-02-16T07:55:25;12.10;87.90
1716;DHT22;855;48.824;9.220;2024-02-16T07:57:52;12.10;87.70
1716;DHT22;855;48.824;9.220;2024-02-16T08:00:19;12.20;87.70
1716;DHT22;855;48.824;9.220;2024-02-16T08:02:48;12.20;87.30
1716;DHT22;855;48.824;9.220;2024-02-16T08:05:14;12.20;87.00
1716;DHT22;855;48.824;9.220;2024-02-16T08:07:44;12.20;86.70
1716;DHT22;855;48.824;9.220;2024-02-16T08:10:12;12.30;86.70
1716;DHT22;855;48.824;9.220;2024-02-16T08:12:39;12.30;86.70
1716;DHT22;855;48.824;9.220;2024-02-16T08:15:06;12.30;86.20
1716;DHT22;855;48.824;9.220;2024-02-16T08:17:34;12.30;86.20
1716;DHT22;855;48.824;9.220;2024-02-16T08:20:03;12.30;86.60
1716;DHT22;855;48.824;9.220;2024-02-16T08:22:30;12.30;86.90
1716;DHT22;855;48.824;9.220;2024-02-16T08:24:57;12.50;87.10
1716;DHT22;855;48.824;9.220;2024-02-16T08:27:24;12.50;86.60
1716;DHT22;855;48.824;9.220;2024-02-16T08:29:51;12.50;86.20
1716;DHT22;855;48.824;9.220;2024-02-16T08:32:18;12.40;84.90
1716;DHT22;855;48.824;9.220;2024-02-16T08:34:46;12.50;85.30
1716;DHT22;855;48.824;9.220;2024-02-16T08:37:16;12.60;84.10
1716;DHT22;855;48.824;9.220;2024-02-16T08:39:43;12.80;84.10
1716;DHT22;855;48.824;9.220;2024-02-16T08:42:09;13.00;82.90
1716;DHT22;855;48.824;9.220;2024-02-16T08:44:37;13.20;82.00
1716;DHT22;855;48.824;9.220;2024-02-16T08:47:04;13.30;81.30
1716;DHT22;855;48.824;9.220;2024-02-16T08:49:31;13.40;80.80
1716;DHT22;855;48.824;9.220;2024-02-16T08:51:58;13.50;79.90
1716;DHT22;855;48.824;9.220;2024-02-16T08:54:26;13.70;80.00
1716;DHT22;855;48.824;9.220;2024-02-16T08:56:53;13.90;79.60
1716;DHT22;855;48.824;9.220;2024-02-16T08:59:20;14.10;77.50
1716;DHT22;855;48.824;9.220;2024-02-16T09:01:47;14.30;76.40
1716;DHT22;855;48.824;9.220;2024-02-16T09:04:14;14.40;75.60
1716;DHT22;855;48.824;9.220;2024-02-16T09:06:41;14.40;74.90
1716;DHT22;855;48.824;9.220;2024-02-16T09:09:08;14.60;73.70
1716;DHT22;855;48.824;9.220;2024-02-16T09:11:37;14.80;73.00
1716;DHT22;855;48.824;9.220;2024-02-16T09:14:04;14.90;71.80
1716;DHT22;855;48.824;9.220;2024-02-16T09:16:31;15.10;71.80
1716;DHT22;855;48.824;9.220;2024-02-16T09:18:58;15.20;70.20
1716;DHT22;855;48.824;9.220;2024-02-16T09:21:25;15.40;69.30
1716;DHT22;855;48.824;9.220;2024-02-16T09:23:55;15.50;68.80
1716;DHT22;855;48.824;9.220;2024-02-16T09:26:24;15.50;68.80
1716;DHT22;855;48.824;9.220;2024-02-16T09:28:56;15.60;68.40
1716;DHT22;855;48.824;9.220;2024-02-16T09:31:23;15.60;68.10
1716;DHT22;855;48.824;9.220;2024-02-16T09:33:50;15.80;67.50
1716;DHT22;855;48.824;9.220;2024-02-16T09:36:19;15.90;66.80
1716;DHT22;855;48.824;9.220;2024-02-16T09:38:46;16.00;66.40
1716;DHT22;855;48.824;9.220;2024-02-16T09:41:13;15.90;66.40
1716;DHT22;855;48.824;9.220;2024-02-16T09:43:42;16.00;66.40
1716;DHT22;855;48.824;9.220;2024-02-16T09:46:10;16.10;66.00
1716;DHT22;855;48.824;9.220;2024-02-16T09:48:40;16.40;65.70
1716;DHT22;855;48.824;9.220;2024-02-16T09:51:09;16.60;65.70
1716;DHT22;855;48.824;9.220;2024-02-16T09:53:36;16.80;66.70
1716;DHT22;855;48.824;9.220;2024-02-16T09:56:05;17.10;65.70
1716;DHT22;855;48.824;9.220;2024-02-16T09:58:34;17.30;64.00
1716;DHT22;855;48.824;9.220;2024-02-16T10:01:01;17.50;63.10
1716;DHT22;855;48.824;9.220;2024-02-16T10:03:30;17.80;62.70
1716;DHT22;855;48.824;9.220;2024-02-16T10:06:06;17.90;62.20
1716;DHT22;855;48.824;9.220;2024-02-16T10:08:33;18.00;61.90
1716;DHT22;855;48.824;9.220;2024-02-16T10:11:03;18.10;60.80
1716;DHT22;855;48.824;9.220;2024-02-16T10:13:31;18.30;60.80
1716;DHT22;855;48.824;9.220;2024-02-16T10:16:08;18.50;60.20
1716;DHT22;855;48.824;9.220;2024-02-16T10:18:37;18.60;59.80
1716;DHT22;855;48.824;9.220;2024-02-16T10:21:04;18.60;59.70
1716;DHT22;855;48.824;9.220;2024-02-16T10:23:31;18.50;60.00
1716;DHT22;855;48.824;9.220;2024-02-16T10:25:58;18.70;60.20
1716;DHT22;855;48.824;9.220;2024-02-16T10:28:27;18.70;59.90
1716;DHT22;855;48.824;9.220;2024-02-16T10:30:59;18.60;59.40
1716;DHT22;855;48.824;9.220;2024-02-16T10:33:27;18.60;59.30
1716;DHT22;855;48.824;9.220;2024-02-16T10:35:58;18.60;59.40
1716;DHT22;855;48.824;9.220;2024-02-16T10:38:25;18.50;59.30
1716;DHT22;855;48.824;9.220;2024-02-16T10:40:54;18.60;59.90
1716;DHT22;855;48.824;9.220;2024-02-16T10:43:23;18.70;60.10
1716;DHT22;855;48.824;9.220;2024-02-16T10:45:51;18.80;59.80
1716;DHT22;855;48.824;9.220;2024-02-16T10:48:19;18.90;59.30
1716;DHT22;855;48.824;9.220;2024-02-16T10:50:46;19.10;58.50
1716;DHT22;855;48.824;9.220;2024-02-16T10:53:22;19.10;58.30
1716;DHT22;855;48.824;9.220;2024-02-16T10:55:50;19.10;58.70
1716;DHT22;855;48.824;9.220;2024-02-16T10:58:17;19.00;58.50
1716;DHT22;855;48.824;9.220;2024-02-16T11:00:51;19.00;57.90
1716;DHT22;855;48.824;9.220;2024-02-16T11:03:21;18.90;58.30
1716;DHT22;855;48.824;9.220;2024-02-16T11:05:50;18.70;58.40
1716;DHT22;855;48.824;9.220;2024-02-16T11:08:19;18.70;58.70
1716;DHT22;855;48.824;9.220;2024-02-16T11:10:56;18.80;58.90
1716;DHT22;855;48.824;9.220;2024-02-16T11:13:24;18.80;57.90
1716;DHT22;855;48.824;9.220;2024-02-16T11:16:02;18.90;57.80
1716;DHT22;855;48.824;9.220;2024-02-16T11:18:30;19.00;57.20
1716;DHT22;855;48.824;9.220;2024-02-16T11:21:00;19.20;57.80
1716;DHT22;855;48.824;9.220;2024-02-16T11:23:29;19.30;56.50
1716;DHT22;855;48.824;9.220;2024-02-16T11:26:00;19.40;56.80
1716;DHT22;855;48.824;9.220;2024-02-16T11:28:27;19.70;56.80
1716;DHT22;855;48.824;9.220;2024-02-16T11:30:54;19.90;56.80
1716;DHT22;855;48.824;9.220;2024-02-16T11:33:21;20.00;55.80
1716;DHT22;855;48.824;9.220;2024-02-16T11:35:53;20.10;55.40
1716;DHT22;855;48.824;9.220;2024-02-16T11:38:20;20.10;54.80
1716;DHT22;855;48.824;9.220;2024-02-16T11:40:55;20.10;54.50
1716;DHT22;855;48.824;9.220;2024-02-16T11:43:25;20.10;54.90
1716;DHT22;855;48.824;9.220;2024-02-16T11:45:52;20.30;54.80
1716;DHT22;855;48.824;9.220;2024-02-16T11:48:19;20.30;54.70
1716;DHT22;855;48.824;9.220;2024-02-16T11:50:47;20.30;54.70
1716;DHT22;855;48.824;9.220;2024-02-16T11:53:17;20.10;55.50
1716;DHT22;855;48.824;9.220;2024-02-16T11:55:49;20.20;55.80
1716;DHT22;855;48.824;9.220;2024-02-16T11:58:18;20.10;56.00
1716;DHT22;855;48.824;9.220;2024-02-16T12:00:45;19.90;56.30
1716;DHT22;855;48.824;9.220;2024-02-16T12:03:18;19.70;56.70
1716;DHT22;855;48.824;9.220;2024-02-16T12:05:50;19.50;57.40
1716;DHT22;855;48.824;9.220;2024-02-16T12:08:17;19.40;57.90
1716;DHT22;855;48.824;9.220;2024-02-16T12:10:44;19.60;57.30
1716;DHT22;855;48.824;9.220;2024-02-16T12:13:12;19.60;57.40
1716;DHT22;855;48.824;9.220;2024-02-16T12:15:40;19.70;56.70
1716;DHT22;855;48.824;9.220;2024-02-16T12:18:07;19.70;56.00
1716;DHT22;855;48.824;9.220;2024-02-16T12:20:34;19.80;55.80
1716;DHT22;855;48.824;9.220;2024-02-16T12:23:11;19.80;56.20
1716;DHT22;855;48.824;9.220;2024-02-16T12:25:38;19.60;56.40
1716;DHT22;855;48.824;9.220;2024-02-16T12:28:05;19.50;57.00
1716;DHT22;855;48.824;9.220;2024-02-16T12:30:33;19.40;57.40
1716;DHT22;855;48.824;9.220;2024-02-16T12:33:01;19.30;57.90
1716;DHT22;855;48.824;9.220;2024-02-16T12:35:28;19.10;58.50
1716;DHT22;855;48.824;9.220;2024-02-16T12:37:55;19.20;59.20
1716;DHT22;855;48.824;9.220;2024-02-16T12:40:22;19.30;59.40
1716;DHT22;855;48.824;9.220;2024-02-16T12:42:48;19.40;59.40
1716;DHT22;855;48.824;9.220;2024-02-16T12:45:15;19.60;59.50
1716;DHT22;855;48.824;9.220;2024-02-16T12:47:42;19.40;59.80
1716;DHT22;855;48.824;9.220;2024-02-16T12:50:12;19.40;60.10
1716;DHT22;855;48.824;9.220;2024-02-16T12:52:39;19.50;60.30
1716;DHT22;855;48.824;9.220;2024-02-16T12:55:06;19.40;61.00
1716;DHT22;855;48.824;9.220;2024-02-16T12:57:35;19.40;61.10
1716;DHT22;855;48.824;9.220;2024-02-16T13:00:02;19.30;61.20
1716;DHT22;855;48.824;9.220;2024-02-16T13:02:29;19.30;61.80
1716;DHT22;855;48.824;9.220;2024-02-16T13:04:55;19.20;62.30
1716;DHT22;855;48.824;9.220;2024-02-16T13:07:24;19.30;61.90
1716;DHT22;855;48.824;9.220;2024-02-16T13:09:51;19.20;62.20
1716;DHT22;855;48.824;9.220;2024-02-16T13:12:19;19.20;62.80
1716;DHT22;855;48.824;9.220;2024-02-16T13:14:49;19.10;63.10
1716;DHT22;855;48.824;9.220;2024-02-16T13:17:16;19.10;63.20
1716;DHT22;855;48.824;9.220;2024-02-16T13:19:43;19.10;63.50
1716;DHT22;855;48.824;9.220;2024-02-16T13:22:10;19.10;63.60
1716;DHT22;855;48.824;9.220;2024-02-16T13:24:38;19.20;63.40
1716;DHT22;855;48.824;9.220;2024-02-16T13:27:05;19.30;63.40
1716;DHT22;855;48.824;9.220;2024-02-16T13:29:32;19.30;63.10
1716;DHT22;855;48.824;9.220;2024-02-16T13:31:59;19.20;63.50
1716;DHT22;855;48.824;9.220;2024-02-16T13:34:27;19.10;63.60
1716;DHT22;855;48.824;9.220;2024-02-16T13:36:53;19.20;63.50
1716;DHT22;855;48.824;9.220;2024-02-16T13:39:20;19.30;63.50
1716;DHT22;855;48.824;9.220;2024-02-16T13:41:49;19.40;63.50
1716;DHT22;855;48.824;9.220;2024-02-16T13:44:17;19.60;62.70
1716;DHT22;855;48.824;9.220;2024-02-16T13:46:45;19.70;62.60
1716;DHT22;855;48.824;9.220;2024-02-16T13:49:13;19.70;62.80
1716;DHT22;855;48.824;9.220;2024-02-16T13:51:40;19.70;63.00
1716;DHT22;855;48.824;9.220;2024-02-16T13:54:07;19.70;63.00
1716;DHT22;855;48.824;9.220;2024-02-16T13:56:34;19.70;62.60
1716;DHT22;855;48.824;9.220;2024-02-16T13:59:03;19.70;62.80
1716;DHT22;855;48.824;9.220;2024-02-16T14:01:30;19.80;62.70
1716;DHT22;855;48.824;9.220;2024-02-16T14:03:57;19.90;62.20
1716;DHT22;855;48.824;9.220;2024-02-16T14:06:24;19.80;62.30
1716;DHT22;855;48.824;9.220;2024-02-16T14:08:50;19.50;62.80
1716;DHT22;855;48.824;9.220;2024-02-16T14:11:18;19.40;63.90
1716;DHT22;855;48.824;9.220;2024-02-16T14:13:45;19.40;64.00
1716;DHT22;855;48.824;9.220;2024-02-16T14:16:13;19.40;64.30
1716;DHT22;855;48.824;9.220;2024-02-16T14:18:40;19.50;64.50
1716;DHT22;855;48.824;9.220;2024-02-16T14:21:07;19.30;65.10
1716;DHT22;855;48.824;9.220;2024-02-16T14:23:33;19.30;65.30
1716;DHT22;855;48.824;9.220;2024-02-16T14:26:00;19.30;65.60
1716;DHT22;855;48.824;9.220;2024-02-16T14:28:27;19.40;65.20
1716;DHT22;855;48.824;9.220;2024-02-16T14:30:54;19.40;65.30
1716;DHT22;855;48.824;9.220;2024-02-16T14:33:22;19.50;65.20
1716;DHT22;855;48.824;9.220;2024-02-16T14:35:49;19.70;65.10
1716;DHT22;855;48.824;9.220;2024-02-16T14:38:16;19.70;65.70
1716;DHT22;855;48.824;9.220;2024-02-16T14:40:43;19.60;65.70
1716;DHT22;855;48.824;9.220;2024-02-16T14:43:09;19.50;65.20
1716;DHT22;855;48.824;9.220;2024-02-16T14:45:36;19.30;65.60
1716;DHT22;855;48.824;9.220;2024-02-16T14:48:04;19.30;65.90
1716;DHT22;855;48.824;9.220;2024-02-16T14:50:33;19.20;66.10
1716;DHT22;855;48.824;9.220;2024-02-16T14:53:00;19.30;65.90
1716;DHT22;855;48.824;9.220;2024-02-16T14:55:27;19.30;66.00
1716;DHT22;855;48.824;9.220;2024-02-16T14:57:54;19.10;66.50
1716;DHT22;855;48.824;9.220;2024-02-16T15:00:21;19.00;67.10
1716;DHT22;855;48.824;9.220;2024-02-16T15:02:48;18.90;67.30
1716;DHT22;855;48.824;9.220;2024-02-16T15:05:16;18.70;67.90
1716;DHT22;855;48.824;9.220;2024-02-16T15:07:44;18.60;68.50
1716;DHT22;855;48.824;9.220;2024-02-16T15:10:11;18.50;69.00
1716;DHT22;855;48.824;9.220;2024-02-16T15:12:38;18.50;69.30
1716;DHT22;855;48.824;9.220;2024-02-16T15:15:06;18.40;70.10
1716;DHT22;855;48.824;9.220;2024-02-16T15:17:33;18.20;70.60
1716;DHT22;855;48.824;9.220;2024-02-16T15:19:59;18.20;70.60
1716;DHT22;855;48.824;9.220;2024-02-16T15:22:28;18.30;70.80
1716;DHT22;855;48.824;9.220;2024-02-16T15:24:56;18.30;70.80
1716;DHT22;855;48.824;9.220;2024-02-16T15:27:23;18.30;70.60
1716;DHT22;855;48.824;9.220;2024-02-16T15:29:50;18.30;71.00
1716;DHT22;855;48.824;9.220;2024-02-16T15:32:17;18.30;70.90
1716;DHT22;855;48.824;9.220;2024-02-16T15:34:45;18.30;70.90
1716;DHT22;855;48.824;9.220;2024-02-16T15:37:13;18.40;70.60
1716;DHT22;855;48.824;9.220;2024-02-16T15:39:40;18.40;71.00
1716;DHT22;855;48.824;9.220;2024-02-16T15:42:08;18.30;71.30
1716;DHT22;855;48.824;9.220;2024-02-16T15:44:37;18.20;71.40
1716;DHT22;855;48.824;9.220;2024-02-16T15:47:04;18.20;71.40
1716;DHT22;855;48.824;9.220;2024-02-16T15:49:31;18.10;71.80
1716;DHT22;855;48.824;9.220;2024-02-16T15:51:57;18.00;72.10
1716;DHT22;855;48.824;9.220;2024-02-16T15:54:24;18.00;72.30
1716;DHT22;855;48.824;9.220;2024-02-16T15:56:51;18.00;72.50
1716;DHT22;855;48.824;9.220;2024-02-16T15:59:19;18.00;72.60
1716;DHT22;855;48.824;9.220;2024-02-16T16:01:46;17.90;72.90
1716;DHT22;855;48.824;9.220;2024-02-16T16:04:13;17.90;73.30
1716;DHT22;855;48.824;9.220;2024-02-16T16:06:40;17.90;73.40
1716;DHT22;855;48.824;9.220;2024-02-16T16:09:08;17.90;73.10
1716;DHT22;855;48.824;9.220;2024-02-16T16:11:35;17.90;73.10
1716;DHT22;855;48.824;9.220;2024-02-16T16:14:02;17.90;73.30
1716;DHT22;855;48.824;9.220;2024-02-16T16:16:30;17.80;73.10
1716;DHT22;855;48.824;9.220;2024-02-16T16:18:57;17.70;73.80
1716;DHT22;855;48.824;9.220;2024-02-16T16:21:24;17.70;73.80